Time;durP1;ratioP1;P1;durP2;ratioP2;P2;SDS_P1;SDS_P2;PMS_P1;PMS_P2;Temp;Humidity;BMP_temperature;BMP_pressure;BME280_temperature;BME280_humidity;BME280_pressure;Samples;Min_cycle;Max_cycle;Signal;HPM_P1;HPM_P2
2022/01/12 00:01:16;;;;;;;;;;;;;;;;;;;;;
2022/01/12 00:04:03;;;;;;;15.00;9.60;;;4.70;99.90;;;;;;6116265;23;20096;-89
2022/01/12 00:10:28;;;;;;;15.10;10.25;;;4.70;99.90;;;;;;6139136;23;19994;-89
2022/01/12 00:13:03;;;;;;;16.67;9.48;;;4.70;99.90;;;;;;6179231;23;20000;-90
2022/01/12 00:16:04;;;;;;;;;;;;;;;;;;;;;
2022/01/12 00:18:49;;;;;;;;;;;;;;;;;;;;;
2022/01/12 00:21:41;;;;;;;15.15;10.38;;;4.70;99.90;;;;;;6158564;23;20375;-90
2022/01/12 00:24:09;;;;;;;;;;;4.70;99.90;;;;;;6133633;23;20495;-89
2022/01/12 00:33:08;;;;;;;14.13;9.90;;;4.70;99.90;;;;;;6132590;23;19924;-90
2022/01/12 00:35:28;;;;;;;21.45;12.23;;;4.60;99.90;;;;;;6157782;23;20347;-89
2022/01/12 00:38:06;;;;;;;;;;;;;;;;;;;;;
2022/01/12 00:41:07;;;;;;;21.45;12.38;;;4.60;99.90;;;;;;6158507;23;20080;-89
2022/01/12 00:43:45;;;;;;;;;;;;;;;;;;;;;
2022/01/12 00:46:38;;;;;;;17.95;11.93;;;4.60;99.90;;;;;;6133916;23;20093;-89
2022/01/12 00:49:10;;;;;;;22.48;12.45;;;4.60;99.90;;;;;;6132857;23;20084;-89
2022/01/12 00:52:10;;;;;;;;;;;;;;;;;;;;;
2022/01/12 00:57:30;;;;;;;20.15;13.15;;;4.60;99.90;;;;;;6121263;23;20341;-89
2022/01/12 00:59:55;;;;;;;19.38;13.40;;;4.60;99.90;;;;;;6107848;23;20006;-90
2022/01/12 01:02:24;;;;;;;24.20;14.00;;;4.60;99.90;;;;;;6157434;23;20012;-90
2022/01/12 01:05:02;;;;;;;21.45;14.05;;;4.50;99.90;;;;;;6132245;23;20002;-89
2022/01/12 01:07:38;;;;;;;19.50;13.05;;;4.60;99.90;;;;;;6131978;23;20006;-89
2022/01/12 01:10:12;;;;;;;19.67;13.10;;;4.50;99.90;;;;;;6132611;23;19998;-90
2022/01/12 01:12:40;;;;;;;20.38;13.70;;;4.50;99.90;;;;;;6132550;23;20001;-89
2022/01/12 01:15:15;;;;;;;22.45;13.40;;;4.60;99.90;;;;;;6131658;23;20024;-89
2022/01/12 01:26:13;;;;;;;22.77;13.55;;;4.50;99.90;;;;;;6158171;23;20012;-89
2022/01/12 01:28:48;;;;;;;21.05;14.07;;;4.60;99.90;;;;;;6132915;23;20008;-89
2022/01/12 01:31:27;;;;;;;;;;;;;;;;;;;;;
2022/01/12 01:33:55;;;;;;;22.52;14.63;;;4.50;99.90;;;;;;6159421;23;20072;-89
2022/01/12 01:36:29;;;;;;;21.70;14.88;;;4.50;99.90;;;;;;6148956;23;20026;-89
2022/01/12 01:39:10;;;;;;;;;;;;;;;;;;;;;
2022/01/12 01:42:01;;;;;;;21.45;14.65;;;4.60;99.90;;;;;;6183715;23;19993;-89
2022/01/12 01:53:21;;;;;;;22.95;15.85;;;4.60;99.90;;;;;;6124481;23;20088;-89
2022/01/12 01:55:57;;;;;;;26.42;16.15;;;4.60;99.90;;;;;;6132042;23;19997;-89
2022/01/12 01:58:25;;;;;;;25.75;15.95;;;4.60;99.90;;;;;;6107059;23;20418;-90
2022/01/12 02:01:16;;;;;;;22.90;15.85;;;4.60;99.90;;;;;;6131556;23;20006;-89
2022/01/12 02:03:47;;;;;;;24.40;15.10;;;4.60;99.90;;;;;;6131191;23;20013;-90
2022/01/12 02:06:15;;;;;;;;;;;4.60;99.90;;;;;;6132387;23;20024;-90
2022/01/12 02:08:49;;;;;;;26.58;16.05;;;4.60;99.90;;;;;;6130426;23;19901;-89
2022/01/12 02:11:25;;;;;;;;;;;;;;;;;;;;;
2022/01/12 02:14:03;;;;;;;23.90;15.80;;;4.50;99.90;;;;;;6160258;23;20065;-93
2022/01/12 02:16:48;;;;;;;;;;;;;;;;;;;;;
2022/01/12 02:39:46;;;;;;;24.08;16.38;;;4.60;99.90;;;;;;6154313;23;20068;-92
2022/01/12 02:39:59;;;;;;;23.80;16.25;;;4.60;99.90;;;;;;6086254;23;20019;-92
2022/01/12 02:42:41;;;;;;;23.75;15.45;;;4.60;99.90;;;;;;6114717;23;20372;-93
2022/01/12 02:54:13;;;;;;;23.52;16.50;;;4.60;99.90;;;;;;6170332;23;20001;-92
2022/01/12 02:56:57;;;;;;;28.35;17.40;;;4.60;99.90;;;;;;6114208;23;20010;-92
2022/01/12 02:59:45;;;;;;;29.20;18.63;;;4.60;99.90;;;;;;6138457;23;20111;-94
2022/01/12 03:02:32;;;;;;;28.85;18.85;;;4.60;99.90;;;;;;6145450;23;20025;-93
2022/01/12 03:05:44;;;;;;;;;;;;;;;;;;;;;
2022/01/12 03:08:23;;;;;;;28.27;19.02;;;4.60;99.90;;;;;;6179910;23;20002;-92
2022/01/12 03:11:01;;;;;;;27.15;18.65;;;4.60;99.90;;;;;;6134640;23;20065;-91
2022/01/12 03:13:56;;;;;;;30.20;19.00;;;4.60;99.90;;;;;;6122680;23;20082;-95
2022/01/12 03:16:36;;;;;;;34.55;20.58;;;4.60;99.90;;;;;;6116565;23;20010;-93
2022/01/12 03:19:13;;;;;;;;;;;;;;;;;;;;;
2022/01/12 03:22:09;;;;;;;;;;;;;;;;;;;;;
2022/01/12 03:24:53;;;;;;;35.70;20.77;;;4.60;99.90;;;;;;6158767;23;20029;-93
2022/01/12 03:27:30;;;;;;;30.88;19.73;;;4.60;99.90;;;;;;6133130;23;20428;-93
2022/01/12 03:30:01;;;;;;;31.73;20.58;;;4.60;99.90;;;;;;6109192;23;20443;-92
2022/01/12 03:33:06;;;;;;;35.30;21.67;;;4.60;99.90;;;;;;6135502;23;20085;-94
2022/01/12 03:35:46;;;;;;;;;;;;;;;;;;;;;
2022/01/12 03:38:27;;;;;;;34.08;21.13;;;4.60;99.90;;;;;;6141000;23;20014;-93
2022/01/12 03:41:12;;;;;;;;;;;;;;;;;;;;;
2022/01/12 03:43:43;;;;;;;34.75;22.20;;;4.60;99.90;;;;;;6160250;23;20092;-93
2022/01/12 03:46:44;;;;;;;36.10;22.90;;;4.60;99.90;;;;;;6110647;23;20013;-93
2022/01/12 03:49:25;;;;;;;32.58;20.90;;;4.60;99.90;;;;;;6134963;23;20084;-94
2022/01/12 03:51:54;;;;;;;33.83;21.70;;;4.60;99.90;;;;;;6134814;23;20420;-93
2022/01/12 03:54:40;;;;;;;31.75;21.55;;;4.60;99.90;;;;;;6134964;23;20487;-93
2022/01/12 03:57:37;;;;;;;;;;;;;;;;;;;;;
2022/01/12 04:00:26;;;;;;;37.75;22.75;;;4.60;99.90;;;;;;6159455;23;20088;-93
2022/01/12 04:03:00;;;;;;;35.78;21.70;;;4.60;99.90;;;;;;6157923;23;20017;-93
2022/01/12 04:08:29;;;;;;;34.85;22.05;;;4.60;99.90;;;;;;6160296;23;20032;-94
2022/01/12 04:11:00;;;;;;;30.83;21.65;;;4.60;99.90;;;;;;6134312;23;20028;-92
2022/01/12 04:13:53;;;;;;;32.17;21.48;;;4.60;99.90;;;;;;6142528;23;20005;-92
2022/01/12 04:16:40;;;;;;;36.40;21.73;;;4.60;99.90;;;;;;6161239;23;20005;-92
2022/01/12 04:19:11;;;;;;;32.53;21.08;;;4.60;99.90;;;;;;6135160;23;20080;-94
2022/01/12 04:21:48;;;;;;;33.40;21.63;;;4.60;99.90;;;;;;6136253;23;20044;-93
2022/01/12 04:24:19;;;;;;;35.80;22.02;;;4.60;99.90;;;;;;6135897;23;20005;-93
2022/01/12 04:27:02;;;;;;;32.13;21.13;;;4.60;99.90;;;;;;6136752;23;20104;-93
2022/01/12 04:29:40;;;;;;;;;;;;;;;;;;;;;
2022/01/12 04:32:26;;;;;;;;;;;;;;;;;;;;;
2022/01/12 04:34:58;;;;;;;33.70;22.40;;;4.60;99.90;;;;;;6183794;23;19989;-92
2022/01/12 04:37:30;;;;;;;30.58;21.60;;;4.60;99.90;;;;;;6157329;23;20009;-94
2022/01/12 04:42:49;;;;;;;34.60;21.38;;;4.60;99.90;;;;;;6123117;23;20014;-94
2022/01/12 04:45:29;;;;;;;;;;;;;;;;;;;;;
2022/01/12 04:50:41;;;;;;;33.22;22.25;;;4.60;99.90;;;;;;6168987;23;20013;-92
2022/01/12 04:59:41;;;;;;;30.75;20.25;;;4.60;99.90;;;;;;6151084;23;20005;-92
2022/01/12 05:14:37;;;;;;;;;;;4.60;99.90;;;;;;6142497;23;20037;-93
2022/01/12 05:17:44;;;;;;;34.15;22.90;;;4.60;99.90;;;;;;6133792;23;19907;-93
2022/01/12 05:20:12;;;;;;;37.03;24.00;;;4.60;99.90;;;;;;6157602;23;20048;-92
2022/01/12 05:22:40;;;;;;;37.72;24.27;;;4.50;99.90;;;;;;6108709;23;20507;-93
2022/01/12 05:28:43;;;;;;;;;;;;;;;;;;;;;
2022/01/12 05:31:41;;;;;;;;;;;;;;;;;;;;;
2022/01/12 05:34:16;;;;;;;37.42;23.85;;;4.60;99.90;;;;;;6159142;23;20081;-93
2022/01/12 05:36:48;;;;;;;31.73;22.63;;;4.60;99.90;;;;;;6133948;23;20016;-94
2022/01/12 05:39:38;;;;;;;;;;;4.60;99.90;;;;;;6134043;23;20006;-92
2022/01/12 05:42:32;;;;;;;36.40;23.33;;;4.60;99.90;;;;;;6112225;23;19971;-94
2022/01/12 05:45:20;;;;;;;38.33;23.63;;;4.60;99.90;;;;;;6158539;23;20005;-93
2022/01/12 05:50:58;;;;;;;34.95;21.88;;;4.60;99.90;;;;;;6160683;23;20109;-93
2022/01/12 05:53:36;;;;;;;;;;;;;;;;;;;;;
2022/01/12 05:56:17;;;;;;;34.35;22.88;;;4.70;99.90;;;;;;6142841;23;20032;-92
2022/01/12 05:58:57;;;;;;;34.20;21.10;;;4.70;99.90;;;;;;6133875;23;20000;-94
2022/01/12 06:01:41;;;;;;;;;;;;;;;;;;;;;
2022/01/12 06:04:40;;;;;;;34.50;23.27;;;4.60;99.90;;;;;;6181997;23;19997;-92
2022/01/12 06:07:09;;;;;;;35.95;22.85;;;4.70;99.90;;;;;;6111794;23;20093;-92
2022/01/12 06:10:07;;;;;;;;;;;;;;;;;;;;;
2022/01/12 06:12:37;;;;;;;34.35;22.20;;;4.70;99.90;;;;;;6139765;23;20053;-91
2022/01/12 06:15:37;;;;;;;37.33;24.13;;;4.70;99.90;;;;;;6132366;23;20084;-90
2022/01/12 06:18:44;;;;;;;38.53;23.38;;;4.70;99.90;;;;;;6109819;23;20036;-90
2022/01/12 06:21:16;;;;;;;37.15;23.27;;;4.70;99.90;;;;;;6158902;23;20040;-91
2022/01/12 06:23:47;;;;;;;38.22;24.00;;;4.70;99.90;;;;;;6109370;23;20041;-91
2022/01/12 06:26:43;;;;;;;;;;;;;;;;;;;;;
2022/01/12 06:29:24;;;;;;;38.83;24.15;;;4.70;99.90;;;;;;6135871;23;20062;-92
2022/01/12 06:32:22;;;;;;;36.08;22.75;;;4.70;99.90;;;;;;6136527;23;20448;-91
2022/01/12 06:38:19;;;;;;;;;;;;;;;;;;;;;
2022/01/12 06:41:17;;;;;;;42.75;24.50;;;4.70;99.90;;;;;;6135560;23;20088;-92
2022/01/12 06:44:15;;;;;;;39.50;24.17;;;4.70;99.90;;;;;;6154682;23;20024;-89
2022/01/12 06:52:06;;;;;;;;;;;;;;;;;;;;;
2022/01/12 06:55:40;;;;;;;;;;;;;;;;;;;;;
2022/01/12 06:59:18;;;;;;;;;;;;;;;;;;;;;
2022/01/12 07:13:11;;;;;;;;;;;;;;;;;;;;;
2022/01/12 07:50:06;;;;;;;37.58;21.10;;;4.80;99.90;;;;;;5808847;23;20022;-88
2022/01/12 07:54:00;;;;;;;36.38;20.00;;;4.80;99.90;;;;;;5989421;23;20053;-89
2022/01/12 07:56:30;;;;;;;35.97;20.35;;;4.80;99.90;;;;;;6005316;23;20008;-90
2022/01/12 07:59:43;;;;;;;36.00;19.40;;;4.80;99.90;;;;;;6124626;23;20009;-90
2022/01/12 08:03:02;;;;;;;;;;;;;;;;;;;;;
2022/01/12 08:09:07;;;;;;;;;;;;;;;;;;;;;
2022/01/12 08:18:44;;;;;;;;;;;;;;;;;;;;;
2022/01/12 08:21:43;;;;;;;;;;;;;;;;;;;;;
2022/01/12 08:25:07;;;;;;;;;;;;;;;;;;;;;
2022/01/12 08:28:42;;;;;;;;;;;;;;;;;;;;;
2022/01/12 08:34:45;;;;;;;41.38;19.77;;;4.80;99.90;;;;;;5985394;23;20070;-90
2022/01/12 08:37:46;;;;;;;38.83;19.25;;;4.80;99.90;;;;;;5961790;24;20013;-91
2022/01/12 09:05:33;;;;;;;;;;;;;;;;;;;;;
2022/01/12 10:23:40;;;;;;;;;;;;;;;;;;;;;
2022/01/12 10:34:02;;;;;;;;;;;;;;;;;;;;;
2022/01/12 10:44:18;;;;;;;;;;;;;;;;;;;;;
2022/01/12 10:54:23;;;;;;;;;;;;;;;;;;;;;
2022/01/12 11:02:12;;;;;;;;;;;;;;;;;;;;;
2022/01/12 11:26:32;;;;;;;;;;;;;;;;;;;;;
2022/01/12 11:47:21;;;;;;;;;;;;;;;;;;;;;
2022/01/12 11:52:38;;;;;;;34.90;18.73;;;5.60;99.90;;;;;;5793181;24;20035;-94
2022/01/12 12:02:21;;;;;;;;;;;;;;;;;;;;;
2022/01/12 12:05:43;;;;;;;;;;;;;;;;;;;;;
2022/01/12 12:12:11;;;;;;;;;;;;;;;;;;;;;
2022/01/12 12:22:10;;;;;;;35.25;19.42;;;5.70;99.90;;;;;;6073265;23;20031;-91
2022/01/12 12:25:28;;;;;;;;;;;;;;;;;;;;;
2022/01/12 13:10:51;;;;;;;34.63;17.73;;;6.00;99.90;;;;;;5694667;24;20044;-91
2022/01/12 13:13:59;;;;;;;35.92;18.15;;;6.00;99.90;;;;;;5653236;25;20014;-90
2022/01/12 13:30:59;;;;;;;43.17;23.48;;;6.00;99.90;;;;;;5796439;24;20396;-89
2022/01/12 13:34:13;;;;;;;;;;;;;;;;;;;;;
2022/01/12 13:37:44;;;;;;;;;;;;;;;;;;;;;
2022/01/12 13:54:16;;;;;;;;;;;;;;;;;;;;;
2022/01/12 14:01:10;;;;;;;;;;;;;;;;;;;;;
2022/01/12 14:12:13;;;;;;;;;;;;;;;;;;;;;
2022/01/12 14:14:42;;;;;;;;;;;;;;;;;;;;;
2022/01/12 14:53:24;;;;;;;;;;;;;;;;;;;;;
2022/01/12 15:00:11;;;;;;;;;;;;;;;;;;;;;
2022/01/12 16:01:40;;;;;;;37.47;18.33;;;5.50;99.90;;;;;;5930265;24;20012;-90
2022/01/12 16:15:12;;;;;;;;;;;;;;;;;;;;;
2022/01/12 16:25:44;;;;;;;;;;;;;;;;;;;;;
2022/01/12 16:48:58;;;;;;;36.38;19.77;;;5.40;99.90;;;;;;5870091;24;20016;-90
2022/01/12 16:51:44;;;;;;;42.88;21.20;;;5.40;99.90;;;;;;5793520;24;20018;-90
2022/01/12 16:54:18;;;;;;;41.85;20.27;;;5.40;99.90;;;;;;5825530;24;20085;-91
2022/01/12 16:57:28;;;;;;;;;;;;;;;;;;;;;
2022/01/12 17:00:18;;;;;;;45.33;23.25;;;5.50;99.90;;;;;;5975102;23;20079;-91
2022/01/12 17:09:44;;;;;;;48.30;24.85;;;5.40;99.90;;;;;;6010762;23;20007;-89
2022/01/12 17:12:36;;;;;;;41.38;22.98;;;5.40;99.90;;;;;;6132149;23;20005;-90
2022/01/12 17:16:06;;;;;;;;;;;;;;;;;;;;;
2022/01/12 17:28:54;;;;;;;;;;;;;;;;;;;;;
2022/01/12 17:31:37;;;;;;;;;;;;;;;;;;;;;
2022/01/12 17:34:19;;;;;;;47.05;25.58;;;5.40;99.90;;;;;;6098201;23;20086;-90
2022/01/12 17:40:48;;;;;;;43.50;23.85;;;5.40;99.90;;;;;;6080438;23;20002;-89
2022/01/12 18:10:40;;;;;;;;;;;;;;;;;;;;;
2022/01/12 18:13:38;;;;;;;46.00;23.58;;;5.10;99.90;;;;;;6067721;23;20509;-88
2022/01/12 18:20:00;;;;;;;42.60;22.05;;;5.20;99.90;;;;;;6053870;23;20044;-88
2022/01/12 18:29:00;;;;;;;50.45;24.70;;;5.20;99.90;;;;;;5956881;23;20012;-88
2022/01/12 18:32:24;;;;;;;43.88;23.00;;;5.20;99.90;;;;;;5931039;24;20059;-89
2022/01/12 18:35:05;;;;;;;42.05;23.73;;;5.20;99.90;;;;;;5989142;23;20007;-87
2022/01/12 18:37:52;;;;;;;49.15;24.95;;;5.20;99.90;;;;;;6123488;23;20006;-89
2022/01/12 18:47:27;;;;;;;45.22;23.10;;;5.20;99.90;;;;;;6015606;23;20326;-86
2022/01/12 18:50:11;;;;;;;47.35;24.88;;;5.10;99.90;;;;;;6113489;23;20092;-88
2022/01/12 18:55:52;;;;;;;43.83;25.63;;;5.10;99.90;;;;;;6147900;23;20009;-88
2022/01/12 18:58:51;;;;;;;44.53;25.30;;;5.20;99.90;;;;;;6171948;23;19997;-87
2022/01/12 19:07:55;;;;;;;46.97;24.92;;;5.10;99.90;;;;;;6055181;23;20014;-89
2022/01/12 19:10:42;;;;;;;49.95;24.30;;;5.10;99.90;;;;;;6022407;23;20264;-89
2022/01/12 19:22:23;;;;;;;47.13;25.77;;;5.10;99.90;;;;;;6070754;23;20026;-88
2022/01/12 19:27:58;;;;;;;;;;;;;;;;;;;;;
2022/01/12 19:30:44;;;;;;;;;;;;;;;;;;;;;
2022/01/12 19:33:20;;;;;;;53.60;25.92;;;5.10;99.90;;;;;;6137485;23;20383;-90
2022/01/12 19:42:10;;;;;;;;;;;;;;;;;;;;;
2022/01/12 19:45:29;;;;;;;51.53;27.40;;;5.00;99.90;;;;;;6158893;23;20077;-89
2022/01/12 19:48:01;;;;;;;44.78;24.13;;;5.10;99.90;;;;;;6114820;23;20064;-88
2022/01/12 19:58:00;;;;;;;43.40;24.65;;;5.00;99.90;;;;;;6020952;23;20011;-88
2022/01/12 20:01:09;;;;;;;44.92;24.73;;;5.00;99.90;;;;;;6076197;23;20030;-89
2022/01/12 20:07:47;;;;;;;;;;;;;;;;;;;;;
2022/01/12 20:14:24;;;;;;;45.53;23.48;;;5.00;99.90;;;;;;5852371;24;20153;-89
2022/01/12 20:24:27;;;;;;;48.50;25.58;;;5.00;99.90;;;;;;5823656;24;20033;-88
2022/01/12 20:27:05;;;;;;;49.88;26.20;;;5.00;99.90;;;;;;5896759;24;20004;-88
2022/01/12 20:29:44;;;;;;;44.63;24.38;;;5.00;99.90;;;;;;6032076;23;20029;-89
2022/01/12 20:32:18;;;;;;;51.55;26.63;;;5.00;99.90;;;;;;6078566;23;19999;-87
2022/01/12 20:34:54;;;;;;;49.53;25.80;;;5.00;99.90;;;;;;6120395;23;20003;-89
2022/01/12 20:37:26;;;;;;;43.25;24.88;;;5.00;99.90;;;;;;6098780;23;19990;-89
2022/01/12 20:40:08;;;;;;;51.17;26.67;;;5.00;99.90;;;;;;6069028;23;20003;-88
2022/01/12 20:45:57;;;;;;;50.35;27.02;;;5.00;99.90;;;;;;6103629;23;20097;-88
2022/01/12 20:48:45;;;;;;;49.63;27.90;;;5.00;99.90;;;;;;6078399;23;20006;-89
2022/01/12 20:51:48;;;;;;;47.53;25.63;;;5.00;99.90;;;;;;6099921;23;20094;-88
2022/01/12 20:54:36;;;;;;;48.38;26.65;;;5.00;99.90;;;;;;6093642;23;20089;-89
2022/01/12 20:57:06;;;;;;;57.45;28.65;;;5.00;99.90;;;;;;6075074;23;20042;-88
2022/01/12 20:59:39;;;;;;;51.35;26.42;;;5.00;99.90;;;;;;6074782;23;20373;-89
2022/01/12 21:02:40;;;;;;;53.83;28.70;;;5.00;99.90;;;;;;6076207;23;20007;-88
2022/01/12 21:11:47;;;;;;;;;;;5.00;99.90;;;;;;5958277;23;20045;-87
2022/01/12 21:18:17;;;;;;;;;;;;;;;;;;;;;
2022/01/12 21:21:01;;;;;;;54.90;28.33;;;5.00;99.90;;;;;;6087760;23;20385;-88
2022/01/12 21:23:32;;;;;;;51.97;26.52;;;5.00;99.90;;;;;;6117979;23;20543;-90
2022/01/12 21:26:18;;;;;;;54.70;27.45;;;4.90;99.90;;;;;;6128189;23;20005;-89
2022/01/12 21:28:54;;;;;;;59.10;29.17;;;4.90;99.90;;;;;;6128026;23;20002;-89
2022/01/12 21:31:20;;;;;;;57.53;28.10;;;4.90;99.90;;;;;;6129770;23;20475;-88
2022/01/12 21:33:47;;;;;;;56.60;29.05;;;4.90;99.90;;;;;;6127985;23;20010;-88
2022/01/12 21:36:15;;;;;;;60.85;28.80;;;4.90;99.90;;;;;;6127433;23;20002;-87
2022/01/12 21:48:33;;;;;;;64.03;30.55;;;4.90;99.90;;;;;;6021196;23;20540;-89
2022/01/12 21:51:07;;;;;;;61.13;29.95;;;4.90;99.90;;;;;;6128115;23;19998;-88
2022/01/12 21:53:34;;;;;;;61.40;28.75;;;4.90;99.90;;;;;;6128574;23;20010;-88
2022/01/12 21:56:19;;;;;;;;;;;;;;;;;;;;;
2022/01/12 21:58:57;;;;;;;62.08;30.50;;;4.90;99.90;;;;;;6106747;23;20081;-89
2022/01/12 22:01:36;;;;;;;;;;;;;;;;;;;;;
2022/01/12 22:04:41;;;;;;;65.65;31.25;;;4.90;99.90;;;;;;6129860;23;20105;-88
2022/01/12 22:07:56;;;;;;;65.25;31.38;;;4.90;99.90;;;;;;6121390;23;19990;-88
2022/01/12 22:11:13;;;;;;;68.78;32.35;;;4.90;99.90;;;;;;6128966;23;20037;-88
2022/01/12 22:13:49;;;;;;;66.68;32.15;;;4.80;99.90;;;;;;6177932;23;20025;-89
2022/01/12 22:16:38;;;;;;;66.80;31.58;;;4.80;99.90;;;;;;6113733;23;20038;-89
2022/01/12 22:19:17;;;;;;;;;;;;;;;;;;;;;
2022/01/12 22:22:06;;;;;;;68.50;31.98;;;4.90;99.90;;;;;;6129153;23;20062;-89
2022/01/12 22:24:32;;;;;;;63.47;31.08;;;4.90;99.90;;;;;;6148872;23;20025;-88
2022/01/12 22:27:00;;;;;;;71.93;33.33;;;4.90;99.90;;;;;;6131664;23;20332;-89
2022/01/12 22:29:34;;;;;;;67.78;32.95;;;4.90;99.90;;;;;;6132449;23;20010;-88
2022/01/12 22:32:12;;;;;;;67.93;32.15;;;4.90;99.90;;;;;;6131982;23;20005;-89
2022/01/12 22:35:02;;;;;;;67.82;32.92;;;4.90;99.90;;;;;;6133170;23;20084;-88
2022/01/12 22:37:33;;;;;;;63.10;30.73;;;4.80;99.90;;;;;;6131921;23;20016;-88
2022/01/12 22:40:01;;;;;;;65.00;31.75;;;4.80;99.90;;;;;;6131846;23;20404;-89
2022/01/12 22:42:27;;;;;;;70.57;31.55;;;4.80;99.90;;;;;;6131893;23;20006;-88
2022/01/12 22:44:55;;;;;;;72.55;31.77;;;4.80;99.90;;;;;;6131804;23;20009;-88
2022/01/12 22:47:29;;;;;;;64.30;31.15;;;4.80;99.90;;;;;;6107164;23;20075;-88
2022/01/12 22:50:04;;;;;;;68.40;31.33;;;4.80;99.90;;;;;;6131768;23;20010;-88
2022/01/12 22:52:41;;;;;;;68.32;32.03;;;4.80;99.90;;;;;;6131743;23;20499;-87
2022/01/12 22:55:25;;;;;;;72.15;32.22;;;4.80;99.90;;;;;;6131898;23;20004;-90
2022/01/12 22:58:14;;;;;;;68.20;31.85;;;4.80;99.90;;;;;;6131912;23;20009;-88
2022/01/12 23:00:53;;;;;;;69.28;33.15;;;4.80;99.90;;;;;;6108349;23;20028;-89
2022/01/12 23:03:43;;;;;;;70.78;33.17;;;4.80;99.90;;;;;;6132149;23;20009;-88
2022/01/12 23:06:19;;;;;;;66.82;33.50;;;4.80;99.90;;;;;;6158122;23;20005;-88
2022/01/12 23:08:48;;;;;;;71.55;34.08;;;4.80;99.90;;;;;;6132448;23;20491;-88
2022/01/12 23:11:48;;;;;;;74.18;32.58;;;4.80;99.90;;;;;;6107969;23;20010;-88
2022/01/12 23:14:59;;;;;;;69.82;32.15;;;4.80;99.90;;;;;;6130821;23;20016;-89
2022/01/12 23:18:12;;;;;;;73.57;32.75;;;4.80;99.90;;;;;;6132250;23;20336;-89
2022/01/12 23:21:14;;;;;;;;;;;;;;;;;;;;;
2022/01/12 23:23:58;;;;;;;79.53;35.85;;;4.70;99.90;;;;;;6148915;23;20097;-88
2022/01/12 23:26:27;;;;;;;74.22;32.10;;;4.80;99.90;;;;;;6134657;23;20013;-89
2022/01/12 23:28:58;;;;;;;71.20;34.17;;;4.70;99.90;;;;;;6134853;23;20002;-88
2022/01/12 23:31:30;;;;;;;76.70;34.80;;;4.70;99.90;;;;;;6158747;23;20428;-88
2022/01/12 23:48:50;;;;;;;72.35;33.70;;;4.60;99.90;;;;;;6157946;23;20422;-88
2022/01/12 23:57:27;;;;;;;73.88;32.05;;;4.60;99.90;;;;;;6132032;23;20433;-88
